Time;durP1;ratioP1;P1;durP2;ratioP2;P2;SDS_P1;SDS_P2;PMS_P1;PMS_P2;Temp;Humidity;BMP_temperature;BMP_pressure;BME280_temperature;BME280_humidity;BME280_pressure;Samples;Min_cycle;Max_cycle;Signal;HPM_P1;HPM_P2
2020/12/08 00:00:33;;;;;;;100.63;37.77;;;3.80;99.90;;;;;;5013233;28;20246;-91
2020/12/08 00:02:59;;;;;;;105.67;37.67;;;3.90;99.90;;;;;;5012310;28;20216;-90
2020/12/08 00:05:25;;;;;;;94.37;35.80;;;3.80;99.90;;;;;;5013302;28;20191;-85
2020/12/08 00:07:52;;;;;;;98.87;39.47;;;3.90;99.90;;;;;;5012874;28;20600;-90
2020/12/08 00:10:19;;;;;;;102.77;39.90;;;3.90;99.90;;;;;;5013641;28;20630;-90
2020/12/08 00:12:47;;;;;;;102.73;39.30;;;3.90;99.90;;;;;;5013441;28;20293;-91
2020/12/08 00:15:14;;;;;;;105.13;40.83;;;3.90;99.90;;;;;;5013650;28;20199;-90
2020/12/08 00:17:40;;;;;;;102.20;38.40;;;3.80;99.90;;;;;;5013370;28;20207;-91
2020/12/08 00:20:07;;;;;;;113.87;40.00;;;3.90;99.90;;;;;;5012721;28;20195;-89
2020/12/08 00:22:34;;;;;;;106.93;39.23;;;3.90;99.90;;;;;;5009329;28;20210;-85
2020/12/08 00:25:04;;;;;;;101.63;39.87;;;3.90;99.90;;;;;;5009476;28;20778;-88
2020/12/08 00:27:30;;;;;;;106.87;40.67;;;3.90;99.90;;;;;;5009572;28;20203;-86
2020/12/08 00:29:57;;;;;;;105.10;39.77;;;3.90;99.90;;;;;;5009166;28;20521;-84
2020/12/08 00:32:23;;;;;;;105.97;40.37;;;3.90;99.90;;;;;;5008363;28;20227;-83
2020/12/08 00:34:49;;;;;;;101.07;40.63;;;3.80;99.90;;;;;;5007842;28;20203;-81
2020/12/08 00:37:15;;;;;;;104.73;39.10;;;3.70;99.90;;;;;;5006968;28;20219;-82
2020/12/08 00:39:42;;;;;;;110.40;40.50;;;3.60;99.90;;;;;;5006682;28;20608;-80
2020/12/08 00:42:09;;;;;;;106.13;39.23;;;3.60;99.90;;;;;;5007712;28;20740;-80
2020/12/08 00:44:35;;;;;;;104.90;38.77;;;3.60;99.90;;;;;;5009115;28;20207;-84
2020/12/08 00:47:03;;;;;;;109.20;40.93;;;3.60;99.90;;;;;;5007811;28;20218;-79
2020/12/08 00:49:29;;;;;;;104.43;39.83;;;3.50;99.90;;;;;;5008173;28;20310;-81
2020/12/08 00:51:56;;;;;;;98.17;40.43;;;3.60;99.90;;;;;;5008332;28;20227;-82
2020/12/08 00:54:23;;;;;;;111.50;41.57;;;3.50;99.90;;;;;;5007779;28;20203;-87
2020/12/08 00:56:49;;;;;;;112.93;44.10;;;3.50;99.90;;;;;;5007969;28;20200;-80
2020/12/08 00:59:16;;;;;;;103.70;41.40;;;3.40;99.90;;;;;;5008085;28;20208;-86
2020/12/08 01:01:43;;;;;;;98.47;39.53;;;3.40;99.90;;;;;;5007978;28;20254;-83
2020/12/08 01:04:09;;;;;;;96.83;40.70;;;3.50;99.90;;;;;;5007948;28;20767;-83
2020/12/08 01:06:37;;;;;;;102.67;40.97;;;3.50;99.90;;;;;;5007975;28;20202;-80
2020/12/08 01:09:06;;;;;;;104.60;41.97;;;3.50;99.90;;;;;;5008173;28;20203;-83
2020/12/08 01:11:32;;;;;;;103.90;41.60;;;3.50;99.90;;;;;;5007927;28;20258;-79
2020/12/08 01:13:58;;;;;;;89.53;38.07;;;3.50;99.90;;;;;;5008426;28;20210;-86
2020/12/08 01:16:26;;;;;;;94.43;39.17;;;3.50;99.90;;;;;;5008860;28;20210;-80
2020/12/08 01:18:52;;;;;;;101.57;40.10;;;3.50;99.90;;;;;;5007030;28;20199;-81
2020/12/08 01:21:18;;;;;;;94.57;39.60;;;3.50;99.90;;;;;;5007539;28;20202;-85
2020/12/08 01:23:45;;;;;;;91.40;38.57;;;3.50;99.90;;;;;;5007054;28;20207;-87
2020/12/08 01:26:11;;;;;;;99.33;39.97;;;3.50;99.90;;;;;;5011109;28;20211;-78
2020/12/08 01:28:37;;;;;;;97.40;40.10;;;3.50;99.90;;;;;;5010731;28;20210;-79
2020/12/08 01:31:03;;;;;;;94.80;40.17;;;3.50;99.90;;;;;;5012171;28;20227;-82
2020/12/08 01:33:30;;;;;;;101.83;42.23;;;3.50;99.90;;;;;;5009865;28;20208;-84
2020/12/08 01:35:57;;;;;;;94.07;40.73;;;3.60;99.90;;;;;;5004140;28;20194;-85
2020/12/08 01:38:23;;;;;;;91.93;39.23;;;3.50;99.90;;;;;;5004735;28;20198;-77
2020/12/08 01:40:53;;;;;;;92.10;39.87;;;3.50;99.90;;;;;;5004343;28;20915;-78
2020/12/08 01:43:22;;;;;;;94.93;39.40;;;3.50;99.90;;;;;;5003344;28;20207;-80
2020/12/08 01:45:49;;;;;;;79.20;36.40;;;3.50;99.90;;;;;;5004352;28;20203;-78
2020/12/08 01:48:15;;;;;;;89.63;37.53;;;3.50;99.90;;;;;;5004101;28;20218;-78
2020/12/08 01:50:44;;;;;;;81.77;35.87;;;3.40;99.90;;;;;;5003114;28;20210;-78
2020/12/08 01:53:12;;;;;;;83.23;36.37;;;3.40;99.90;;;;;;5003624;28;20215;-78
2020/12/08 01:55:38;;;;;;;82.50;38.27;;;3.40;99.90;;;;;;5003894;28;20214;-78
2020/12/08 01:58:13;;;;;;;86.50;39.13;;;3.40;99.90;;;;;;5002837;28;20238;-77
2020/12/08 02:00:40;;;;;;;85.97;38.73;;;3.40;99.90;;;;;;5005316;28;20267;-78
2020/12/08 02:03:06;;;;;;;89.73;38.93;;;3.40;99.90;;;;;;5003815;28;20199;-78
2020/12/08 02:05:33;;;;;;;81.60;37.87;;;3.40;99.90;;;;;;5003286;28;20214;-77
2020/12/08 02:08:00;;;;;;;87.30;40.80;;;3.40;99.90;;;;;;5004550;28;20209;-77
2020/12/08 02:10:26;;;;;;;84.30;38.37;;;3.40;99.90;;;;;;5003510;28;20199;-78
2020/12/08 02:12:52;;;;;;;90.67;39.20;;;3.40;99.90;;;;;;5003784;28;20249;-78
2020/12/08 02:15:19;;;;;;;78.10;37.53;;;3.40;99.90;;;;;;5004562;28;20898;-90
2020/12/08 02:17:45;;;;;;;79.80;37.20;;;3.40;99.90;;;;;;5003559;28;20558;-77
2020/12/08 02:20:13;;;;;;;83.47;39.43;;;3.40;99.90;;;;;;5003501;28;20630;-78
2020/12/08 02:22:42;;;;;;;82.23;41.00;;;3.40;99.90;;;;;;5002630;28;20214;-79
2020/12/08 02:25:08;;;;;;;76.83;37.40;;;3.40;99.90;;;;;;5001399;28;20204;-82
2020/12/08 02:27:35;;;;;;;80.30;38.40;;;3.40;99.90;;;;;;4984354;28;20215;-77
2020/12/08 02:30:01;;;;;;;81.90;39.97;;;3.40;99.90;;;;;;4982980;28;20223;-78
2020/12/08 02:32:27;;;;;;;76.43;38.33;;;3.40;99.90;;;;;;4985053;28;20528;-77
2020/12/08 02:34:54;;;;;;;77.57;39.17;;;3.40;99.90;;;;;;4985371;28;20848;-78
2020/12/08 02:37:21;;;;;;;82.47;38.27;;;3.40;99.90;;;;;;4983363;28;20296;-78
2020/12/08 02:39:47;;;;;;;84.03;38.77;;;3.40;99.90;;;;;;4985137;28;20207;-78
2020/12/08 02:42:15;;;;;;;82.93;38.30;;;3.30;99.90;;;;;;4985195;28;20203;-78
2020/12/08 02:44:41;;;;;;;86.13;37.93;;;3.30;99.90;;;;;;4983241;28;20208;-87
2020/12/08 02:47:08;;;;;;;79.80;38.73;;;3.30;99.90;;;;;;4984734;28;20203;-77
2020/12/08 02:49:34;;;;;;;81.40;38.53;;;3.30;99.90;;;;;;4985713;28;20199;-77
2020/12/08 02:52:00;;;;;;;81.67;41.07;;;3.30;99.90;;;;;;4983300;28;20244;-78
2020/12/08 02:54:27;;;;;;;76.47;38.50;;;3.40;99.90;;;;;;4982688;28;20204;-77
2020/12/08 02:56:53;;;;;;;84.40;39.77;;;3.40;99.90;;;;;;4986860;28;20206;-89
2020/12/08 02:59:20;;;;;;;81.43;38.50;;;3.40;99.90;;;;;;4984676;28;20212;-83
2020/12/08 03:01:46;;;;;;;76.37;38.17;;;3.40;99.90;;;;;;4982973;28;20236;-78
2020/12/08 03:04:12;;;;;;;76.23;37.33;;;3.40;99.90;;;;;;4984822;28;20196;-78
2020/12/08 03:06:41;;;;;;;72.60;36.93;;;3.40;99.90;;;;;;4985593;28;20215;-88
2020/12/08 03:09:07;;;;;;;74.73;36.87;;;3.40;99.90;;;;;;4983317;28;20243;-78
2020/12/08 03:11:34;;;;;;;80.77;39.23;;;3.40;99.90;;;;;;4984452;28;20227;-78
2020/12/08 03:14:01;;;;;;;84.43;39.17;;;3.40;99.90;;;;;;4987003;28;20204;-78
2020/12/08 03:16:27;;;;;;;73.37;35.43;;;3.40;99.90;;;;;;4988590;28;20204;-89
2020/12/08 03:18:53;;;;;;;77.63;36.70;;;3.40;99.90;;;;;;4992259;28;20200;-90
2020/12/08 03:21:19;;;;;;;74.90;35.37;;;3.30;99.90;;;;;;4991673;28;20907;-90
2020/12/08 03:23:46;;;;;;;75.40;35.80;;;3.30;99.90;;;;;;4990294;28;20239;-90
2020/12/08 03:26:19;;;;;;;65.00;33.03;;;3.40;99.90;;;;;;4991876;28;20205;-91
2020/12/08 03:28:46;;;;;;;78.37;37.20;;;3.30;99.90;;;;;;4991166;28;20204;-90
2020/12/08 03:31:12;;;;;;;74.97;36.37;;;3.40;99.90;;;;;;4991030;28;20216;-88
2020/12/08 03:33:39;;;;;;;77.50;37.87;;;3.30;99.90;;;;;;4991545;28;20199;-87
2020/12/08 03:36:10;;;;;;;79.63;36.50;;;3.40;99.90;;;;;;4990578;28;20208;-90
2020/12/08 03:38:36;;;;;;;82.43;38.43;;;3.40;99.90;;;;;;4991637;28;20212;-90
2020/12/08 03:41:03;;;;;;;82.17;38.27;;;3.40;99.90;;;;;;4989902;28;20235;-89
2020/12/08 03:43:29;;;;;;;84.93;39.53;;;3.40;99.90;;;;;;4994242;28;20211;-90
2020/12/08 03:45:56;;;;;;;74.93;37.63;;;3.40;99.90;;;;;;4995388;28;20203;-86
2020/12/08 03:48:22;;;;;;;74.87;37.80;;;3.40;99.90;;;;;;4994477;28;20211;-90
2020/12/08 03:50:49;;;;;;;68.40;35.13;;;3.40;99.90;;;;;;4995020;28;20223;-89
2020/12/08 03:53:16;;;;;;;76.83;34.63;;;3.40;99.90;;;;;;4994864;28;20235;-89
2020/12/08 03:55:45;;;;;;;82.50;36.27;;;3.40;99.90;;;;;;4994838;28;20192;-91
2020/12/08 03:58:11;;;;;;;80.90;37.37;;;3.50;99.90;;;;;;4993906;28;20208;-87
2020/12/08 04:00:37;;;;;;;77.03;37.90;;;3.40;99.90;;;;;;5041078;23;20234;-89
2020/12/08 04:03:05;;;;;;;81.00;40.53;;;3.50;99.90;;;;;;5052944;28;20500;-89
2020/12/08 04:05:31;;;;;;;79.13;39.20;;;3.50;99.90;;;;;;5053519;28;20627;-89
2020/12/08 04:07:57;;;;;;;70.07;35.07;;;3.40;99.90;;;;;;5053871;28;20201;-90
2020/12/08 04:10:23;;;;;;;74.33;35.70;;;3.40;99.90;;;;;;5053875;28;20202;-85
2020/12/08 04:12:49;;;;;;;78.33;36.90;;;3.40;99.90;;;;;;5053182;28;20226;-89
2020/12/08 04:15:16;;;;;;;72.63;35.93;;;3.40;99.90;;;;;;5052851;28;20194;-89
2020/12/08 04:17:42;;;;;;;75.43;37.40;;;3.40;99.90;;;;;;5053358;28;20217;-88
2020/12/08 04:20:09;;;;;;;73.87;34.50;;;3.40;99.90;;;;;;5053069;28;20879;-90
2020/12/08 04:22:35;;;;;;;67.37;33.80;;;3.40;99.90;;;;;;5053387;28;20201;-89
2020/12/08 04:25:02;;;;;;;72.27;34.70;;;3.40;99.90;;;;;;5052821;28;20228;-90
2020/12/08 04:27:28;;;;;;;67.07;33.07;;;3.40;99.90;;;;;;5053454;28;20198;-90
2020/12/08 04:29:54;;;;;;;59.30;31.33;;;3.50;99.90;;;;;;5052697;28;20897;-89
2020/12/08 04:32:20;;;;;;;61.00;31.53;;;3.50;99.90;;;;;;5052361;28;20321;-90
2020/12/08 04:34:46;;;;;;;67.07;32.90;;;3.50;99.90;;;;;;5052772;28;20194;-89
2020/12/08 04:37:13;;;;;;;57.90;30.67;;;3.50;99.90;;;;;;5052686;28;20201;-88
2020/12/08 04:39:40;;;;;;;59.87;31.00;;;3.50;99.90;;;;;;5052626;28;20197;-89
2020/12/08 04:42:06;;;;;;;66.93;32.90;;;3.50;99.90;;;;;;5052274;28;20630;-89
2020/12/08 04:44:33;;;;;;;74.90;35.50;;;3.50;99.90;;;;;;5052443;28;20198;-88
2020/12/08 04:46:59;;;;;;;71.43;32.93;;;3.50;99.90;;;;;;5051647;28;20206;-90
2020/12/08 04:49:26;;;;;;;67.00;33.67;;;3.50;99.90;;;;;;5051595;28;20186;-89
2020/12/08 04:51:53;;;;;;;72.27;35.80;;;3.50;99.90;;;;;;5051837;28;20232;-89
2020/12/08 04:54:20;;;;;;;67.53;33.20;;;3.50;99.90;;;;;;5051676;28;20205;-82
2020/12/08 04:56:48;;;;;;;73.53;34.87;;;3.40;99.90;;;;;;5052178;28;20206;-89
2020/12/08 04:59:22;;;;;;;62.07;31.40;;;3.40;99.90;;;;;;5049288;28;20205;-89
2020/12/08 05:01:49;;;;;;;65.07;32.17;;;3.40;99.90;;;;;;5048610;28;20206;-80
2020/12/08 05:04:23;;;;;;;64.33;31.80;;;3.40;99.90;;;;;;5047525;28;20235;-78
2020/12/08 05:07:01;;;;;;;60.80;30.93;;;3.40;99.90;;;;;;5046895;28;20766;-88
2020/12/08 05:09:28;;;;;;;60.97;30.87;;;3.40;99.90;;;;;;5051947;28;20508;-89
2020/12/08 05:12:00;;;;;;;65.60;30.80;;;3.30;99.90;;;;;;5048478;28;20229;-77
2020/12/08 05:14:26;;;;;;;62.03;30.80;;;3.40;99.90;;;;;;5047676;28;20512;-80
2020/12/08 05:17:03;;;;;;;61.50;30.43;;;3.40;99.90;;;;;;5049638;28;20575;-80
2020/12/08 05:19:29;;;;;;;59.73;30.20;;;3.30;99.90;;;;;;5050871;28;20244;-89
2020/12/08 05:21:55;;;;;;;60.33;29.90;;;3.30;99.90;;;;;;5048542;28;20198;-84
2020/12/08 05:24:26;;;;;;;60.77;29.40;;;3.30;99.90;;;;;;5048650;28;20217;-79
2020/12/08 05:26:56;;;;;;;59.37;30.50;;;3.30;99.90;;;;;;5050505;28;20214;-88
2020/12/08 05:29:23;;;;;;;63.17;30.90;;;3.30;99.90;;;;;;5050068;28;20222;-88
2020/12/08 05:31:50;;;;;;;58.97;30.70;;;3.30;99.90;;;;;;5049348;28;20947;-85
2020/12/08 05:34:21;;;;;;;60.23;30.70;;;3.30;99.90;;;;;;5048110;28;20260;-88
2020/12/08 05:36:49;;;;;;;62.23;31.20;;;3.40;99.90;;;;;;5050882;28;20198;-89
2020/12/08 05:39:18;;;;;;;60.33;30.70;;;3.40;99.90;;;;;;5050944;28;20305;-88
2020/12/08 05:41:46;;;;;;;62.63;30.47;;;3.40;99.90;;;;;;5049766;28;20293;-89
2020/12/08 05:44:18;;;;;;;62.17;31.50;;;3.40;99.90;;;;;;5050552;28;20201;-89
2020/12/08 05:46:46;;;;;;;69.40;32.07;;;3.40;99.90;;;;;;5050927;28;20213;-89
2020/12/08 05:49:14;;;;;;;68.80;34.73;;;3.40;99.90;;;;;;5049054;28;20201;-88
2020/12/08 05:51:43;;;;;;;63.23;30.90;;;3.40;99.90;;;;;;5050250;28;20225;-89
2020/12/08 05:54:14;;;;;;;63.37;31.13;;;3.40;99.90;;;;;;5049780;28;20210;-88
2020/12/08 05:56:40;;;;;;;67.13;33.10;;;3.40;99.90;;;;;;5045754;28;20208;-89
2020/12/08 05:59:06;;;;;;;63.07;31.70;;;3.40;99.90;;;;;;5047198;28;20190;-77
2020/12/08 06:01:33;;;;;;;66.07;32.53;;;3.40;99.90;;;;;;5046631;28;20208;-78
2020/12/08 06:04:00;;;;;;;66.67;32.90;;;3.40;99.90;;;;;;5046113;28;20202;-89
2020/12/08 06:06:26;;;;;;;58.70;30.73;;;3.40;99.90;;;;;;5047482;28;20212;-90
2020/12/08 06:08:52;;;;;;;57.57;30.50;;;3.40;99.90;;;;;;5047932;28;20205;-89
2020/12/08 06:11:29;;;;;;;71.13;34.80;;;3.40;99.90;;;;;;5046333;28;20200;-76
2020/12/08 06:13:55;;;;;;;66.73;32.93;;;3.30;99.90;;;;;;5045382;28;20197;-90
2020/12/08 06:16:23;;;;;;;66.97;33.70;;;3.30;99.90;;;;;;5047396;28;20205;-89
2020/12/08 06:18:51;;;;;;;62.07;30.83;;;3.30;99.90;;;;;;5047309;28;20213;-83
2020/12/08 06:21:22;;;;;;;55.00;30.57;;;3.30;99.90;;;;;;5045715;28;20213;-79
2020/12/08 06:23:50;;;;;;;60.47;31.67;;;3.20;99.90;;;;;;5046308;28;20189;-78
2020/12/08 06:26:22;;;;;;;63.50;32.87;;;3.20;99.90;;;;;;5047401;28;20566;-82
2020/12/08 06:28:48;;;;;;;56.17;31.53;;;3.20;99.90;;;;;;5046413;28;20221;-83
2020/12/08 06:31:15;;;;;;;56.87;29.97;;;3.10;99.90;;;;;;5043719;28;20217;-79
2020/12/08 06:33:50;;;;;;;63.17;33.00;;;3.10;99.90;;;;;;5045485;28;20230;-85
2020/12/08 06:36:17;;;;;;;56.97;31.23;;;3.10;99.90;;;;;;5045463;28;20205;-82
2020/12/08 06:38:45;;;;;;;59.27;30.27;;;3.00;99.90;;;;;;5044748;28;20521;-83
2020/12/08 06:41:11;;;;;;;54.47;29.23;;;3.00;99.90;;;;;;5046535;28;20304;-80
2020/12/08 06:43:41;;;;;;;58.43;31.17;;;2.90;99.90;;;;;;5045872;28;20197;-80
2020/12/08 06:46:09;;;;;;;57.37;30.60;;;2.90;99.90;;;;;;5045634;28;20201;-85
2020/12/08 06:48:36;;;;;;;59.33;31.97;;;2.90;99.90;;;;;;5045274;28;20194;-86
2020/12/08 06:51:04;;;;;;;51.63;27.77;;;2.80;99.90;;;;;;5045731;28;20206;-78
2020/12/08 06:53:31;;;;;;;49.17;28.20;;;2.80;99.90;;;;;;5045302;28;20769;-83
2020/12/08 06:55:57;;;;;;;56.83;30.63;;;2.80;99.90;;;;;;5046487;28;20202;-86
2020/12/08 06:58:23;;;;;;;49.83;28.53;;;2.80;99.90;;;;;;5045977;28;20208;-80
2020/12/08 07:00:49;;;;;;;53.50;32.20;;;2.80;99.90;;;;;;5045511;28;20234;-81
2020/12/08 07:03:17;;;;;;;59.33;32.43;;;2.80;99.90;;;;;;5045042;28;20208;-78
2020/12/08 07:05:44;;;;;;;57.40;32.30;;;2.80;99.90;;;;;;5045091;28;20205;-79
2020/12/08 07:08:15;;;;;;;63.60;34.83;;;2.70;99.90;;;;;;5045977;28;20205;-82
2020/12/08 07:10:42;;;;;;;58.40;33.13;;;2.70;99.90;;;;;;5046386;28;20194;-86
2020/12/08 07:13:14;;;;;;;59.67;31.47;;;2.70;99.90;;;;;;5044064;28;20230;-78
2020/12/08 07:15:40;;;;;;;54.13;30.13;;;2.70;99.90;;;;;;5045501;28;20213;-82
2020/12/08 07:18:08;;;;;;;57.27;31.63;;;2.70;99.90;;;;;;5049799;28;20198;-83
2020/12/08 07:20:35;;;;;;;57.53;31.00;;;2.70;99.90;;;;;;5049330;28;20213;-78
2020/12/08 07:23:03;;;;;;;65.17;34.40;;;2.60;99.90;;;;;;5048082;28;20229;-78
2020/12/08 07:25:31;;;;;;;57.77;32.10;;;2.60;99.90;;;;;;5043542;28;20661;-79
2020/12/08 07:27:57;;;;;;;56.03;33.90;;;2.70;99.90;;;;;;5028981;28;20210;-77
2020/12/08 07:30:25;;;;;;;62.80;33.67;;;2.70;99.90;;;;;;5028245;28;20635;-80
2020/12/08 07:32:51;;;;;;;61.90;34.03;;;2.70;99.90;;;;;;5029086;28;20230;-79
2020/12/08 07:35:20;;;;;;;57.97;32.67;;;2.70;99.90;;;;;;5030008;28;20195;-81
2020/12/08 07:37:47;;;;;;;57.23;33.13;;;2.70;99.90;;;;;;5029519;28;20481;-83
2020/12/08 07:40:15;;;;;;;58.40;32.90;;;2.70;99.90;;;;;;5029549;28;20503;-79
2020/12/08 07:42:48;;;;;;;59.53;32.67;;;2.70;99.90;;;;;;5030446;28;20202;-80
2020/12/08 07:45:15;;;;;;;58.13;33.00;;;2.70;99.90;;;;;;5030641;28;20183;-83
2020/12/08 07:47:41;;;;;;;60.63;33.23;;;2.70;99.90;;;;;;5029192;28;20287;-80
2020/12/08 07:50:08;;;;;;;62.87;34.43;;;2.70;99.90;;;;;;5029171;28;20210;-79
2020/12/08 07:52:34;;;;;;;57.80;33.13;;;2.80;99.90;;;;;;5030228;28;20238;-85
2020/12/08 07:55:01;;;;;;;53.20;31.23;;;2.80;99.90;;;;;;5046096;23;20528;-81
2020/12/08 07:57:27;;;;;;;61.17;33.40;;;2.80;99.90;;;;;;5049987;28;20237;-84
2020/12/08 07:59:55;;;;;;;57.80;32.23;;;2.80;99.90;;;;;;5051387;28;20221;-86
2020/12/08 08:02:21;;;;;;;59.33;32.53;;;2.80;99.90;;;;;;5052646;28;20217;-83
2020/12/08 08:04:47;;;;;;;50.43;29.20;;;2.80;99.90;;;;;;5053800;28;20205;-86
2020/12/08 08:07:13;;;;;;;53.73;30.27;;;2.90;99.90;;;;;;5053636;28;20215;-84
2020/12/08 08:09:40;;;;;;;54.40;31.70;;;2.90;99.90;;;;;;5052322;28;20197;-87
2020/12/08 08:12:07;;;;;;;52.47;29.90;;;2.90;99.90;;;;;;5053084;28;20217;-90
2020/12/08 08:31:33;;;;;;;45.80;27.97;;;3.10;99.90;;;;;;5584786;23;20237;-95
2020/12/08 08:33:59;;;;;;;46.27;27.93;;;3.10;99.90;;;;;;5035161;28;20312;-89
2020/12/08 08:36:30;;;;;;;47.17;26.27;;;3.10;99.90;;;;;;5060066;23;20241;-89
2020/12/08 08:38:57;;;;;;;42.40;26.70;;;3.10;99.90;;;;;;5053291;28;20212;-92
2020/12/08 08:41:23;;;;;;;46.13;27.63;;;3.20;99.90;;;;;;5054300;28;20221;-88
2020/12/08 08:43:53;;;;;;;44.20;27.77;;;3.20;99.90;;;;;;5059679;22;20277;-87
2020/12/08 08:46:19;;;;;;;48.00;28.17;;;3.20;99.90;;;;;;5052759;28;20205;-88
2020/12/08 08:48:46;;;;;;;43.47;26.37;;;3.30;99.90;;;;;;5052912;28;20206;-87
2020/12/08 08:51:13;;;;;;;49.77;28.57;;;3.30;99.90;;;;;;5052665;28;20194;-88
2020/12/08 08:53:39;;;;;;;43.50;25.27;;;3.40;99.90;;;;;;5053378;28;20240;-88
2020/12/08 08:56:05;;;;;;;46.57;27.10;;;3.40;99.90;;;;;;5053452;28;20289;-88
2020/12/08 08:58:32;;;;;;;41.03;25.40;;;3.40;99.90;;;;;;5052969;28;20202;-88
2020/12/08 09:00:59;;;;;;;46.37;26.10;;;3.40;99.90;;;;;;5052719;28;20217;-88
2020/12/08 09:03:26;;;;;;;42.47;25.63;;;3.50;99.90;;;;;;5052461;28;20194;-88
2020/12/08 09:05:53;;;;;;;42.97;25.40;;;3.50;99.90;;;;;;5052480;28;20210;-86
2020/12/08 09:08:20;;;;;;;46.90;27.87;;;3.50;99.90;;;;;;5052454;28;20209;-88
2020/12/08 09:10:46;;;;;;;45.00;27.00;;;3.50;99.90;;;;;;5050594;28;20503;-93
2020/12/08 09:13:12;;;;;;;39.80;25.10;;;3.50;99.90;;;;;;5052964;28;20757;-91
2020/12/08 09:15:39;;;;;;;41.37;25.17;;;3.50;99.90;;;;;;5052995;28;20206;-91
2020/12/08 09:18:05;;;;;;;42.67;26.03;;;3.50;99.90;;;;;;5052730;28;20288;-96
2020/12/08 09:20:31;;;;;;;39.23;24.10;;;3.50;99.90;;;;;;5052473;28;20210;-91
2020/12/08 09:22:58;;;;;;;40.77;25.13;;;3.60;99.90;;;;;;5052206;28;20205;-90
2020/12/08 09:25:28;;;;;;;41.30;24.97;;;3.60;99.90;;;;;;5051999;28;20658;-91
2020/12/08 09:27:55;;;;;;;35.13;23.60;;;3.60;99.90;;;;;;5051830;28;20209;-91
2020/12/08 09:30:21;;;;;;;39.93;24.50;;;3.60;99.90;;;;;;5052291;28;20226;-90
2020/12/08 09:32:48;;;;;;;36.07;24.30;;;3.60;99.90;;;;;;5052170;28;20253;-89
2020/12/08 09:35:15;;;;;;;36.50;24.83;;;3.60;99.90;;;;;;5051990;28;20190;-92
2020/12/08 09:37:41;;;;;;;38.70;24.13;;;3.60;99.90;;;;;;5051757;28;20308;-94
2020/12/08 09:40:09;;;;;;;37.03;24.00;;;3.70;99.90;;;;;;5049988;28;20232;-94
2020/12/08 09:42:39;;;;;;;36.47;24.07;;;3.70;99.90;;;;;;5052546;28;20233;-91
2020/12/08 09:45:06;;;;;;;39.67;24.20;;;3.70;99.90;;;;;;5051439;28;20264;-94
2020/12/08 09:47:32;;;;;;;40.13;25.40;;;3.70;99.90;;;;;;5052413;28;20210;-95
2020/12/08 09:49:58;;;;;;;38.70;23.73;;;3.70;99.90;;;;;;5052663;28;20206;-94
2020/12/08 09:52:28;;;;;;;35.23;22.97;;;3.70;99.90;;;;;;5052363;28;20796;-93
2020/12/08 09:54:54;;;;;;;38.63;24.27;;;3.80;99.90;;;;;;5052456;28;20206;-94
2020/12/08 09:57:21;;;;;;;37.87;23.30;;;3.80;99.90;;;;;;5051950;28;20213;-84
2020/12/08 09:59:48;;;;;;;37.30;23.93;;;3.80;99.90;;;;;;5052988;28;20531;-91
2020/12/08 10:02:14;;;;;;;36.70;25.60;;;3.80;99.90;;;;;;5052203;28;20201;-91
2020/12/08 10:04:40;;;;;;;36.70;25.63;;;3.80;99.90;;;;;;5052451;28;20186;-92
2020/12/08 10:07:06;;;;;;;34.43;23.67;;;3.80;99.90;;;;;;5051873;28;20478;-92
2020/12/08 10:09:33;;;;;;;34.33;22.60;;;3.80;99.90;;;;;;5052430;28;20238;-92
2020/12/08 10:11:59;;;;;;;33.53;23.03;;;3.80;99.90;;;;;;5052609;28;20212;-92
2020/12/08 10:14:26;;;;;;;38.83;24.97;;;3.80;99.90;;;;;;5053311;28;20194;-94
2020/12/08 10:16:52;;;;;;;32.17;21.73;;;3.80;99.90;;;;;;5053056;28;20198;-93
2020/12/08 10:19:19;;;;;;;37.17;23.67;;;3.80;99.90;;;;;;5053221;28;20209;-92
2020/12/08 10:21:45;;;;;;;37.43;23.97;;;3.90;99.90;;;;;;5053204;28;20213;-92
2020/12/08 10:24:11;;;;;;;37.50;23.63;;;3.90;99.90;;;;;;5053146;28;20197;-93
2020/12/08 10:26:38;;;;;;;40.57;25.77;;;3.90;99.90;;;;;;5053284;28;20209;-94
2020/12/08 10:29:04;;;;;;;37.03;26.77;;;4.00;99.90;;;;;;5053294;28;20229;-96
2020/12/08 10:31:31;;;;;;;39.80;25.00;;;4.00;99.90;;;;;;5053602;28;20202;-92
2020/12/08 10:33:58;;;;;;;40.27;25.73;;;4.00;99.90;;;;;;5052707;28;20661;-94
2020/12/08 10:36:24;;;;;;;39.87;25.37;;;4.00;99.90;;;;;;5052648;28;20201;-95
2020/12/08 10:38:51;;;;;;;34.13;23.03;;;4.10;99.90;;;;;;5052520;28;20216;-92
2020/12/08 10:41:20;;;;;;;35.57;23.53;;;4.10;99.90;;;;;;5053705;28;20236;-91
2020/12/08 10:43:47;;;;;;;38.33;24.63;;;4.20;99.90;;;;;;5053151;28;20236;-95
2020/12/08 10:46:14;;;;;;;36.90;24.33;;;4.20;99.90;;;;;;5053299;28;20212;-94
2020/12/08 10:48:41;;;;;;;37.23;24.57;;;4.20;99.90;;;;;;5053524;28;20206;-89
2020/12/08 10:51:07;;;;;;;42.07;26.33;;;4.30;99.90;;;;;;5053217;28;20601;-96
2020/12/08 10:53:34;;;;;;;40.13;27.07;;;4.30;99.90;;;;;;5056396;28;20252;-95
2020/12/08 10:56:00;;;;;;;38.57;26.47;;;4.30;99.90;;;;;;5054929;28;20201;-93
2020/12/08 10:58:26;;;;;;;37.73;25.50;;;4.40;99.90;;;;;;5063751;28;20190;-95
2020/12/08 11:00:53;;;;;;;38.97;23.23;;;4.40;99.90;;;;;;5072074;28;20194;-82
2020/12/08 11:03:19;;;;;;;41.93;27.10;;;4.50;99.90;;;;;;5067786;28;20197;-92
2020/12/08 11:05:48;;;;;;;42.03;26.33;;;4.50;99.90;;;;;;5057385;28;20213;-92
2020/12/08 11:08:14;;;;;;;45.47;27.67;;;4.50;99.90;;;;;;5051669;28;20244;-81
2020/12/08 11:10:41;;;;;;;40.93;26.33;;;4.60;99.90;;;;;;5047267;28;20197;-78
2020/12/08 11:13:08;;;;;;;38.73;26.23;;;4.60;99.90;;;;;;5045660;28;20225;-79
2020/12/08 11:15:34;;;;;;;37.23;26.70;;;4.60;99.90;;;;;;5047038;28;20945;-79
2020/12/08 11:18:00;;;;;;;40.10;26.20;;;4.70;99.90;;;;;;5040211;28;20203;-79
2020/12/08 11:20:26;;;;;;;38.20;26.70;;;4.80;99.90;;;;;;5027495;28;20910;-79
2020/12/08 11:22:54;;;;;;;45.70;29.43;;;4.80;99.90;;;;;;5027889;28;20599;-79
2020/12/08 11:25:20;;;;;;;39.37;25.87;;;4.80;99.90;;;;;;5026853;28;20626;-78
2020/12/08 11:27:48;;;;;;;45.20;28.40;;;4.90;99.90;;;;;;5026132;28;20775;-79
2020/12/08 11:30:14;;;;;;;42.00;28.17;;;5.00;99.90;;;;;;5026892;28;20638;-78
2020/12/08 11:32:40;;;;;;;45.83;31.73;;;5.00;99.90;;;;;;5029533;28;20618;-86
2020/12/08 11:35:07;;;;;;;42.87;30.10;;;5.00;99.90;;;;;;5026259;28;20269;-80
2020/12/08 11:37:33;;;;;;;43.87;29.77;;;5.10;99.90;;;;;;5026235;28;20590;-79
2020/12/08 11:40:00;;;;;;;44.13;29.53;;;5.20;99.90;;;;;;5027488;28;20213;-85
2020/12/08 11:42:26;;;;;;;46.07;29.53;;;5.20;99.90;;;;;;5025866;28;20249;-78
2020/12/08 11:44:52;;;;;;;47.40;29.97;;;5.30;99.90;;;;;;5026711;28;20210;-90
2020/12/08 11:47:23;;;;;;;45.20;30.63;;;5.30;99.90;;;;;;5044904;28;20206;-79
2020/12/08 11:49:49;;;;;;;42.80;30.73;;;5.30;99.90;;;;;;5045422;28;20696;-78
2020/12/08 11:52:16;;;;;;;48.43;32.47;;;5.40;99.90;;;;;;5044732;28;20890;-79
2020/12/08 11:54:42;;;;;;;45.00;31.07;;;5.40;99.90;;;;;;5045091;28;20198;-79
2020/12/08 11:57:09;;;;;;;50.70;32.77;;;5.40;99.90;;;;;;5045183;28;20220;-80
2020/12/08 11:59:35;;;;;;;41.63;30.57;;;5.40;99.90;;;;;;5046063;28;20205;-84
2020/12/08 12:02:02;;;;;;;40.03;28.13;;;5.50;99.90;;;;;;5044817;28;20217;-78
2020/12/08 12:04:28;;;;;;;41.63;30.40;;;5.60;99.90;;;;;;5045868;28;20186;-78
2020/12/08 12:06:54;;;;;;;43.07;29.60;;;5.70;99.90;;;;;;5045633;28;20198;-79
2020/12/08 12:09:20;;;;;;;42.53;29.27;;;5.70;99.90;;;;;;5044805;28;20212;-80
2020/12/08 12:11:47;;;;;;;43.13;30.47;;;5.80;99.90;;;;;;5047066;28;20244;-79
2020/12/08 12:14:14;;;;;;;43.77;30.50;;;5.80;99.90;;;;;;5049066;28;20220;-90
2020/12/08 12:16:41;;;;;;;45.47;28.70;;;5.70;99.90;;;;;;5048709;28;20402;-88
2020/12/08 12:19:08;;;;;;;39.97;27.47;;;5.80;99.90;;;;;;5046252;28;20202;-82
2020/12/08 12:21:36;;;;;;;37.20;26.97;;;5.80;99.90;;;;;;5050124;28;20198;-87
2020/12/08 12:24:02;;;;;;;38.03;27.27;;;5.80;99.90;;;;;;5051693;28;20209;-88
2020/12/08 12:26:29;;;;;;;36.37;26.27;;;5.80;99.90;;;;;;5050174;28;20195;-81
2020/12/08 12:28:55;;;;;;;33.97;25.17;;;5.80;99.90;;;;;;5048876;28;20309;-79
2020/12/08 12:31:22;;;;;;;36.33;25.67;;;5.80;99.90;;;;;;5047716;28;20213;-80
2020/12/08 12:33:49;;;;;;;35.97;26.17;;;5.90;99.90;;;;;;5046333;28;20225;-79
2020/12/08 12:36:15;;;;;;;35.20;25.73;;;5.90;99.90;;;;;;5046013;28;20292;-79
2020/12/08 12:38:41;;;;;;;35.60;26.30;;;5.90;99.90;;;;;;5047189;28;20202;-81
2020/12/08 12:41:08;;;;;;;35.03;25.77;;;6.00;99.90;;;;;;5046872;28;20210;-78
2020/12/08 12:43:34;;;;;;;34.47;26.13;;;6.00;99.90;;;;;;5044337;28;20233;-79
2020/12/08 12:46:00;;;;;;;34.77;24.47;;;6.00;99.90;;;;;;5046710;28;20206;-79
2020/12/08 12:48:27;;;;;;;35.17;24.73;;;6.00;99.90;;;;;;5048839;28;20205;-81
2020/12/08 12:50:53;;;;;;;35.17;23.33;;;6.00;99.90;;;;;;5050556;28;20202;-88